createdAt,value
2017-11-09T00:02:01.575Z,6.80
2017-11-09T00:04:35.514Z,6.80
2017-11-09T00:07:03.089Z,6.80
2017-11-09T00:09:30.659Z,6.80
2017-11-09T00:11:58.261Z,6.80
2017-11-09T00:14:26.595Z,6.90
2017-11-09T00:16:54.196Z,6.90
2017-11-09T00:19:22.607Z,6.80
2017-11-09T00:21:50.199Z,6.80
2017-11-09T00:24:17.829Z,6.80
2017-11-09T00:26:45.417Z,6.80
2017-11-09T00:29:13.005Z,6.80
2017-11-09T00:31:41.380Z,6.80
2017-11-09T00:34:09.734Z,6.80
2017-11-09T00:36:37.396Z,6.80
2017-11-09T00:39:05.124Z,7.00
2017-11-09T00:41:32.690Z,6.90
2017-11-09T00:44:00.392Z,6.90
2017-11-09T00:46:27.944Z,6.90
2017-11-09T00:48:55.547Z,6.90
2017-11-09T00:51:23.108Z,6.90
2017-11-09T00:53:50.709Z,6.90
2017-11-09T00:56:18.293Z,6.90
2017-11-09T00:58:46.817Z,6.90
2017-11-09T01:01:14.379Z,6.80
2017-11-09T01:03:42.053Z,7.00
2017-11-09T01:06:09.654Z,6.90
2017-11-09T01:08:38.038Z,6.90
2017-11-09T01:11:06.417Z,6.90
2017-11-09T01:13:34.744Z,7.00
2017-11-09T01:16:02.444Z,7.00
2017-11-09T01:18:30.772Z,7.10
2017-11-09T01:20:58.361Z,7.10
2017-11-09T01:23:25.921Z,7.00
2017-11-09T01:25:53.515Z,7.00
2017-11-09T01:28:21.100Z,7.00
2017-11-09T01:30:48.661Z,6.90
2017-11-09T01:33:16.263Z,7.00
2017-11-09T01:35:44.609Z,6.90
2017-11-09T01:38:12.206Z,6.90
2017-11-09T01:40:39.808Z,6.90
2017-11-09T01:43:07.470Z,6.90
2017-11-09T01:45:35.041Z,6.80
2017-11-09T01:48:02.610Z,6.70
2017-11-09T01:50:30.265Z,6.80
2017-11-09T01:52:57.829Z,6.80
2017-11-09T01:55:25.428Z,6.70
2017-11-09T01:57:53.756Z,6.70
2017-11-09T02:00:21.393Z,6.70
2017-11-09T02:02:49.077Z,6.80
2017-11-09T02:05:16.689Z,6.70
2017-11-09T02:07:45.017Z,6.70
2017-11-09T02:10:12.592Z,6.70
2017-11-09T02:12:40.320Z,6.70
2017-11-09T02:15:08.037Z,6.70
2017-11-09T02:17:36.460Z,6.60
2017-11-09T02:20:04.072Z,6.60
2017-11-09T02:22:31.634Z,6.70
2017-11-09T02:24:59.245Z,6.60
2017-11-09T02:27:26.848Z,6.60
2017-11-09T02:29:55.336Z,6.70
2017-11-09T02:32:23.755Z,6.70
2017-11-09T02:34:51.374Z,6.70
2017-11-09T02:37:19.801Z,6.80
2017-11-09T02:39:47.452Z,6.80
2017-11-09T02:42:15.084Z,6.80
2017-11-09T02:44:43.548Z,6.60
2017-11-09T02:47:11.884Z,6.60
2017-11-09T02:49:39.480Z,6.60
2017-11-09T02:52:07.042Z,6.70
2017-11-09T02:54:35.461Z,7.00
2017-11-09T02:57:03.057Z,7.00
2017-11-09T02:59:30.633Z,6.90
2017-11-09T03:01:58.240Z,6.80
2017-11-09T03:04:25.808Z,6.90
2017-11-09T03:06:53.425Z,7.00
2017-11-09T03:09:21.748Z,6.90
2017-11-09T03:11:49.313Z,6.90
2017-11-09T03:14:16.915Z,7.00
2017-11-09T03:16:45.255Z,6.70
2017-11-09T03:19:12.820Z,6.70
2017-11-09T03:21:40.422Z,6.60
2017-11-09T03:24:08.750Z,6.60
2017-11-09T03:26:36.436Z,6.60
2017-11-09T03:29:04.027Z,6.70
2017-11-09T03:31:31.588Z,6.80
2017-11-09T03:33:59.153Z,6.60
2017-11-09T03:36:26.818Z,6.70
2017-11-09T03:38:54.509Z,6.70
2017-11-09T03:41:22.071Z,6.70
2017-11-09T03:43:49.674Z,6.70
2017-11-09T03:46:18.031Z,6.70
2017-11-09T03:48:45.633Z,6.70
2017-11-09T03:51:13.235Z,6.70
2017-11-09T03:53:40.884Z,6.60
2017-11-09T03:56:08.466Z,6.70
2017-11-09T03:58:36.047Z,6.80
2017-11-09T04:01:03.663Z,6.80
2017-11-09T04:03:31.392Z,6.80
2017-11-09T04:05:58.961Z,6.80
2017-11-09T04:08:26.556Z,6.80
2017-11-09T04:10:54.124Z,6.80
2017-11-09T04:13:21.828Z,6.80
2017-11-09T04:15:49.544Z,6.70
2017-11-09T04:18:17.255Z,6.70
2017-11-09T04:20:44.868Z,6.70
2017-11-09T04:23:12.428Z,6.70
2017-11-09T04:25:40.892Z,6.70
2017-11-09T04:28:08.489Z,6.70
2017-11-09T04:30:36.049Z,6.60
2017-11-09T04:33:03.616Z,6.60
2017-11-09T04:35:31.265Z,6.60
2017-11-09T04:37:58.831Z,6.60
2017-11-09T04:40:26.505Z,6.60
2017-11-09T04:42:54.132Z,6.50
2017-11-09T04:45:22.550Z,6.50
2017-11-09T04:47:50.136Z,6.50
2017-11-09T04:50:17.704Z,6.50
2017-11-09T04:52:45.308Z,6.40
2017-11-09T04:55:12.979Z,6.40
2017-11-09T04:57:40.603Z,6.40
2017-11-09T05:00:09.018Z,6.40
2017-11-09T05:02:36.679Z,6.40
2017-11-09T05:05:04.288Z,6.40
2017-11-09T05:07:32.716Z,6.40
2017-11-09T05:10:00.284Z,6.40
2017-11-09T05:12:27.924Z,6.40
2017-11-09T05:14:55.594Z,6.40
2017-11-09T05:17:23.190Z,6.40
2017-11-09T05:19:50.797Z,6.50
2017-11-09T05:22:18.393Z,6.40
2017-11-09T05:24:46.000Z,6.40
2017-11-09T05:27:14.346Z,6.50
2017-11-09T05:29:42.032Z,6.50
2017-11-09T05:32:10.361Z,6.40
2017-11-09T05:34:37.968Z,6.40
2017-11-09T05:37:06.380Z,6.40
2017-11-09T05:39:34.062Z,6.30
2017-11-09T05:42:01.807Z,6.40
2017-11-09T05:44:29.398Z,6.40
2017-11-09T05:46:57.004Z,6.40
2017-11-09T05:49:24.576Z,6.40
2017-11-09T05:51:52.197Z,6.40
2017-11-09T05:54:20.006Z,6.40
2017-11-09T05:56:47.621Z,6.50
2017-11-09T05:59:15.959Z,6.50
2017-11-09T06:01:43.519Z,6.50
2017-11-09T06:04:11.116Z,6.40
2017-11-09T06:06:38.688Z,6.40
2017-11-09T06:09:07.067Z,6.50
2017-11-09T06:11:35.429Z,6.50
2017-11-09T06:14:03.765Z,6.50
2017-11-09T06:16:31.407Z,6.50
2017-11-09T06:18:58.972Z,6.50
2017-11-09T06:21:26.568Z,6.50
2017-11-09T06:23:54.986Z,6.60
2017-11-09T06:26:22.592Z,6.60
2017-11-09T06:28:50.179Z,6.60
2017-11-09T06:31:17.744Z,6.60
2017-11-09T06:33:46.117Z,6.60
2017-11-09T06:36:14.596Z,6.50
2017-11-09T06:38:42.929Z,6.60
2017-11-09T06:41:10.521Z,6.50
2017-11-09T06:43:38.868Z,6.60
2017-11-09T06:46:06.442Z,6.60
2017-11-09T06:48:34.096Z,6.60
2017-11-09T06:51:01.685Z,6.60
2017-11-09T06:53:29.288Z,6.50
2017-11-09T06:55:56.851Z,6.50
2017-11-09T06:58:24.505Z,6.50
2017-11-09T07:00:52.069Z,6.60
2017-11-09T07:03:19.669Z,6.70
2017-11-09T07:05:47.245Z,6.70
2017-11-09T07:08:15.600Z,6.80
2017-11-09T07:10:43.196Z,6.70
2017-11-09T07:13:10.756Z,6.80
2017-11-09T07:15:38.438Z,6.90
2017-11-09T07:18:06.009Z,6.80
2017-11-09T07:20:33.575Z,6.70
2017-11-09T07:23:01.180Z,6.80
2017-11-09T07:25:29.574Z,6.80
2017-11-09T07:27:57.160Z,6.80
2017-11-09T07:30:24.720Z,6.70
2017-11-09T07:32:52.342Z,6.90
2017-11-09T07:35:21.330Z,6.90
2017-11-09T07:37:49.667Z,6.80
2017-11-09T07:40:17.255Z,6.80
2017-11-09T07:42:45.588Z,6.70
2017-11-09T07:45:13.260Z,6.70
2017-11-09T07:47:40.860Z,6.70
2017-11-09T07:50:09.206Z,6.90
2017-11-09T07:52:36.805Z,6.90
2017-11-09T07:55:04.394Z,7.00
2017-11-09T07:57:32.024Z,7.00
2017-11-09T07:59:59.598Z,6.90
2017-11-09T08:02:27.193Z,6.80
2017-11-09T08:04:54.826Z,6.70
2017-11-09T08:07:22.401Z,6.70
2017-11-09T08:09:50.001Z,6.70
2017-11-09T08:12:18.426Z,6.70
2017-11-09T08:14:46.049Z,6.70
2017-11-09T08:17:14.381Z,6.70
2017-11-09T08:19:41.953Z,6.60
2017-11-09T08:22:09.557Z,6.60
2017-11-09T08:24:39.016Z,6.60
2017-11-09T08:27:09.111Z,6.60
2017-11-09T08:29:39.145Z,6.50
2017-11-09T08:32:11.379Z,6.50
2017-11-09T08:34:39.040Z,6.60
2017-11-09T08:37:06.632Z,6.70
2017-11-09T08:39:34.230Z,6.70
2017-11-09T08:42:02.565Z,6.60
2017-11-09T08:44:30.166Z,6.50
2017-11-09T08:46:57.750Z,6.60
2017-11-09T08:49:25.341Z,6.60
2017-11-09T08:51:52.941Z,6.60
2017-11-09T08:54:21.450Z,6.90
2017-11-09T08:56:49.049Z,6.80
2017-11-09T08:59:16.629Z,6.90
2017-11-09T09:01:45.108Z,6.80
2017-11-09T09:04:13.489Z,6.80
2017-11-09T09:06:41.967Z,6.80
2017-11-09T09:09:10.329Z,6.70
2017-11-09T09:11:37.953Z,6.70
2017-11-09T09:14:05.540Z,6.80
2017-11-09T09:16:33.137Z,6.90
2017-11-09T09:19:01.466Z,6.90
2017-11-09T09:21:44.025Z,6.90
2017-11-09T09:24:12.221Z,7.00
2017-11-09T09:26:39.860Z,7.10
2017-11-09T09:32:09.031Z,7.00
2017-11-09T09:34:39.500Z,7.00
2017-11-09T09:37:10.453Z,7.10
2017-11-09T09:39:43.683Z,7.00
2017-11-09T09:42:11.269Z,7.00
2017-11-09T09:44:39.596Z,7.10
2017-11-09T09:47:07.236Z,7.00
2017-11-09T09:49:35.018Z,7.10
2017-11-09T09:52:02.642Z,7.10
2017-11-09T09:54:31.015Z,7.00
2017-11-09T09:56:59.445Z,7.20
2017-11-09T09:59:27.046Z,7.20
2017-11-09T10:01:55.375Z,7.10
2017-11-09T10:04:23.017Z,7.00
2017-11-09T10:06:50.612Z,7.10
2017-11-09T10:09:18.221Z,7.20
2017-11-09T10:11:45.804Z,7.10
2017-11-09T10:14:13.396Z,7.10
2017-11-09T10:16:40.990Z,7.20
2017-11-09T10:19:09.453Z,7.20
2017-11-09T10:21:37.820Z,7.20
2017-11-09T10:24:05.388Z,7.20
2017-11-09T10:26:33.729Z,7.20
2017-11-09T10:29:01.334Z,7.10
2017-11-09T10:31:29.679Z,7.50
2017-11-09T10:33:57.264Z,7.50
2017-11-09T10:36:25.598Z,7.40
2017-11-09T10:38:53.549Z,7.40
2017-11-09T10:41:21.113Z,9.40
2017-11-09T10:43:48.680Z,7.40
2017-11-09T10:46:16.329Z,7.40
2017-11-09T10:48:43.982Z,7.60
2017-11-09T10:51:11.584Z,7.60
2017-11-09T10:53:39.935Z,7.40
2017-11-09T10:56:07.562Z,7.40
2017-11-09T10:58:38.053Z,7.40
2017-11-09T11:01:06.423Z,7.40
2017-11-09T11:03:34.011Z,7.40
2017-11-09T11:06:02.344Z,7.40
2017-11-09T11:08:30.036Z,7.40
2017-11-09T11:10:58.372Z,7.40
2017-11-09T11:13:25.988Z,7.40
2017-11-09T11:15:54.324Z,7.60
2017-11-09T11:18:21.950Z,7.60
2017-11-09T11:20:49.611Z,7.60
2017-11-09T11:23:17.185Z,7.40
2017-11-09T11:25:44.804Z,7.50
2017-11-09T11:28:13.164Z,7.50
2017-11-09T11:30:40.736Z,7.40
2017-11-09T11:33:09.265Z,7.50
2017-11-09T11:35:36.839Z,7.60
2017-11-09T11:38:04.428Z,7.50
2017-11-09T11:40:32.772Z,7.50
2017-11-09T11:43:00.725Z,7.50
2017-11-09T11:45:28.298Z,7.40
2017-11-09T11:47:55.858Z,7.40
2017-11-09T11:50:23.483Z,7.70
2017-11-09T11:52:51.080Z,7.60
2017-11-09T11:55:18.644Z,7.50
2017-11-09T11:57:46.219Z,7.50
2017-11-09T12:00:13.813Z,7.70
2017-11-09T12:02:41.391Z,7.70
2017-11-09T12:05:10.853Z,7.80
2017-11-09T12:07:38.420Z,8.00
2017-11-09T12:10:06.061Z,8.00
2017-11-09T12:12:34.683Z,8.10
2017-11-09T12:15:02.254Z,8.10
2017-11-09T12:17:29.837Z,8.00
2017-11-09T12:19:57.400Z,7.80
2017-11-09T12:22:25.020Z,7.90
2017-11-09T12:24:52.676Z,7.90
2017-11-09T12:27:20.300Z,7.80
2017-11-09T12:29:48.663Z,7.90
2017-11-09T12:32:16.413Z,7.90
2017-11-09T12:34:44.016Z,7.90
2017-11-09T12:37:11.579Z,7.90
2017-11-09T12:39:39.160Z,7.90
2017-11-09T12:42:06.766Z,7.90
2017-11-09T12:44:35.128Z,7.90
2017-11-09T12:47:02.748Z,7.90
2017-11-09T12:49:30.313Z,7.90
2017-11-09T12:51:57.905Z,7.70
2017-11-09T12:54:25.512Z,7.70
2017-11-09T12:56:53.106Z,7.70
2017-11-09T12:59:20.855Z,7.70
2017-11-09T13:01:48.433Z,7.80
2017-11-09T13:04:16.044Z,7.80
2017-11-09T13:06:43.617Z,7.70
2017-11-09T13:09:11.212Z,7.70
2017-11-09T13:11:38.803Z,7.70
2017-11-09T13:14:07.224Z,7.80
2017-11-09T13:16:34.829Z,7.80
2017-11-09T13:19:03.280Z,7.80
2017-11-09T13:21:30.872Z,7.70
2017-11-09T13:23:58.573Z,7.70
2017-11-09T13:26:26.173Z,7.70
2017-11-09T13:28:53.761Z,7.70
2017-11-09T13:31:22.233Z,7.80
2017-11-09T13:33:50.579Z,7.80
2017-11-09T13:36:18.211Z,7.70
2017-11-09T13:38:45.800Z,7.80
2017-11-09T13:41:13.382Z,7.70
2017-11-09T13:43:40.986Z,7.70
2017-11-09T13:46:08.549Z,7.70
2017-11-09T13:48:36.136Z,7.70
2017-11-09T13:51:03.763Z,7.60
2017-11-09T13:53:31.426Z,7.60
2017-11-09T13:55:59.094Z,7.60
2017-11-09T13:58:26.692Z,7.60
2017-11-09T14:00:54.999Z,7.60
2017-11-09T14:03:22.637Z,7.70
2017-11-09T14:05:51.060Z,7.70
2017-11-09T14:08:18.626Z,7.70
2017-11-09T14:10:46.337Z,7.70
2017-11-09T14:13:14.757Z,7.80
2017-11-09T14:15:42.426Z,7.70
2017-11-09T14:18:09.997Z,7.70
2017-11-09T14:20:37.616Z,7.70
2017-11-09T14:23:05.237Z,7.70
2017-11-09T14:25:32.828Z,7.70
2017-11-09T14:28:01.192Z,7.80
2017-11-09T14:30:29.613Z,7.80
2017-11-09T14:32:57.213Z,7.70
2017-11-09T14:35:24.797Z,7.70
2017-11-09T14:37:53.368Z,7.70
2017-11-09T14:40:22.709Z,7.70
2017-11-09T14:42:50.290Z,7.70
2017-11-09T14:45:17.897Z,7.70
2017-11-09T14:47:46.247Z,7.70
2017-11-09T14:50:13.978Z,7.70
2017-11-09T14:52:41.599Z,7.70
2017-11-09T14:55:09.194Z,7.70
2017-11-09T14:57:36.773Z,7.70
2017-11-09T15:00:04.405Z,7.70
2017-11-09T15:02:32.029Z,7.70
2017-11-09T15:05:00.398Z,7.70
2017-11-09T15:07:28.761Z,7.70
2017-11-09T15:09:56.353Z,7.70
2017-11-09T15:12:24.769Z,7.70
2017-11-09T15:14:52.352Z,7.70
2017-11-09T15:17:19.932Z,7.70
2017-11-09T15:19:48.316Z,7.70
2017-11-09T15:22:16.652Z,7.60
2017-11-09T15:24:47.316Z,7.60
2017-11-09T15:27:15.661Z,7.60
2017-11-09T15:29:43.248Z,7.60
2017-11-09T15:32:10.809Z,7.60
2017-11-09T15:34:39.180Z,7.60
2017-11-09T15:37:06.765Z,7.60
2017-11-09T15:39:34.347Z,7.60
2017-11-09T15:42:01.966Z,7.60
2017-11-09T15:44:30.317Z,7.60
2017-11-09T15:46:57.909Z,7.50
2017-11-09T15:49:26.319Z,7.60
2017-11-09T15:51:53.934Z,7.50
2017-11-09T15:54:21.536Z,7.50
2017-11-09T15:56:49.109Z,7.50
2017-11-09T15:59:16.704Z,7.50
2017-11-09T16:01:44.269Z,7.50
2017-11-09T16:04:11.888Z,7.50
2017-11-09T16:06:45.138Z,7.50
2017-11-09T16:09:13.488Z,7.40
2017-11-09T16:11:41.067Z,7.40
2017-11-09T16:14:09.413Z,7.50
2017-11-09T16:16:37.037Z,7.50
2017-11-09T16:19:04.645Z,7.50
2017-11-09T16:21:32.250Z,7.60
2017-11-09T16:24:00.022Z,7.50
2017-11-09T16:26:27.645Z,7.50
2017-11-09T16:29:13.703Z,7.40
2017-11-09T16:31:41.332Z,7.40
2017-11-09T16:34:08.904Z,7.40
2017-11-09T16:36:36.544Z,7.40
2017-11-09T16:39:04.275Z,7.40
2017-11-09T16:41:32.628Z,7.40
2017-11-09T16:44:00.362Z,7.40
2017-11-09T16:46:27.959Z,7.50
2017-11-09T16:48:55.553Z,7.60
2017-11-09T16:51:23.123Z,7.50
2017-11-09T16:53:50.788Z,7.50
2017-11-09T16:56:21.242Z,7.50
2017-11-09T16:58:51.799Z,7.50
2017-11-09T17:01:20.189Z,7.40
2017-11-09T17:03:48.564Z,7.50
2017-11-09T17:06:16.953Z,7.40
2017-11-09T17:08:44.536Z,7.40
2017-11-09T17:11:12.137Z,7.40
2017-11-09T17:13:39.721Z,7.40
2017-11-09T17:16:08.099Z,7.50
2017-11-09T17:18:36.467Z,7.40
2017-11-09T17:21:04.806Z,7.40
2017-11-09T17:23:32.408Z,7.40
2017-11-09T17:26:00.747Z,7.40
2017-11-09T17:28:28.376Z,7.40
2017-11-09T17:30:55.947Z,7.50
2017-11-09T17:33:23.565Z,7.40
2017-11-09T17:35:51.901Z,7.40
2017-11-09T17:38:19.517Z,7.40
2017-11-09T17:40:47.198Z,7.50
2017-11-09T17:43:14.787Z,7.50
2017-11-09T17:45:42.388Z,7.50
2017-11-09T17:48:10.077Z,7.40
2017-11-09T17:50:37.690Z,7.40
2017-11-09T17:53:06.122Z,7.30
2017-11-09T17:55:33.757Z,7.20
2017-11-09T17:58:01.334Z,7.20
2017-11-09T18:00:28.913Z,7.30
2017-11-09T18:02:56.513Z,7.30
2017-11-09T18:05:24.856Z,7.40
2017-11-09T18:07:52.473Z,7.40
2017-11-09T18:10:20.049Z,7.40
2017-11-09T18:12:47.630Z,7.40
2017-11-09T18:15:15.348Z,7.40
2017-11-09T18:17:42.941Z,7.50
2017-11-09T18:20:10.641Z,7.40
2017-11-09T18:22:39.287Z,7.40
2017-11-09T18:25:06.905Z,7.40
2017-11-09T18:27:34.520Z,7.30
2017-11-09T18:30:02.085Z,7.20
2017-11-09T18:32:29.708Z,7.30
2017-11-09T18:34:57.424Z,7.30
2017-11-09T18:37:25.864Z,7.40
2017-11-09T18:39:53.448Z,7.40
2017-11-09T18:42:21.165Z,7.40
2017-11-09T18:44:48.783Z,7.40
2017-11-09T18:47:17.141Z,7.50
2017-11-09T18:49:44.784Z,7.40
2017-11-09T18:52:12.377Z,7.50
2017-11-09T18:54:40.086Z,7.50
2017-11-09T18:57:07.681Z,7.50
2017-11-09T18:59:35.267Z,7.40
2017-11-09T19:02:03.633Z,7.30
2017-11-09T19:04:31.225Z,7.30
2017-11-09T19:06:58.874Z,7.30
2017-11-09T19:09:27.146Z,7.20
2017-11-09T19:11:55.491Z,7.20
2017-11-09T19:14:23.095Z,7.20
2017-11-09T19:16:50.672Z,7.20
2017-11-09T19:19:18.290Z,7.30
2017-11-09T19:21:46.664Z,7.40
2017-11-09T19:24:15.196Z,7.30
2017-11-09T19:26:42.799Z,7.30
2017-11-09T19:29:10.384Z,7.30
2017-11-09T19:31:37.999Z,7.20
2017-11-09T19:34:05.551Z,7.20
2017-11-09T19:36:33.193Z,7.30
2017-11-09T19:39:00.842Z,7.30
2017-11-09T19:41:28.431Z,7.30
2017-11-09T19:43:56.041Z,7.30
2017-11-09T19:46:23.645Z,7.40
2017-11-09T19:48:51.324Z,7.30
2017-11-09T19:51:18.916Z,7.40
2017-11-09T19:53:46.497Z,7.30
2017-11-09T19:56:14.158Z,7.30
2017-11-09T19:58:41.760Z,7.20
2017-11-09T20:01:09.377Z,7.20
2017-11-09T20:03:36.978Z,7.10
2017-11-09T20:06:04.594Z,7.10
2017-11-09T20:08:32.277Z,7.10
2017-11-09T20:10:59.848Z,7.10
2017-11-09T20:13:27.577Z,7.20
2017-11-09T20:15:55.239Z,7.10
2017-11-09T20:18:22.841Z,7.20
2017-11-09T20:20:50.465Z,7.20
2017-11-09T20:23:18.128Z,7.20
2017-11-09T20:25:45.908Z,7.20
2017-11-09T20:28:13.532Z,7.20
2017-11-09T20:30:41.124Z,7.30
2017-11-09T20:33:08.700Z,7.30
2017-11-09T20:35:36.328Z,7.40
2017-11-09T20:38:03.925Z,7.60
2017-11-09T20:40:31.920Z,7.50
2017-11-09T20:43:00.305Z,7.30
2017-11-09T20:45:27.894Z,7.20
2017-11-09T20:47:55.528Z,7.30
2017-11-09T20:50:23.125Z,7.30
2017-11-09T20:52:50.733Z,7.20
2017-11-09T20:55:18.333Z,7.20
2017-11-09T20:57:46.166Z,7.20
2017-11-09T21:00:13.756Z,7.30
2017-11-09T21:02:41.344Z,7.30
2017-11-09T21:05:08.979Z,7.30
2017-11-09T21:07:36.555Z,7.30
2017-11-09T21:10:04.166Z,7.30
2017-11-09T21:12:31.763Z,7.30
2017-11-09T21:14:59.418Z,7.20
2017-11-09T21:17:27.008Z,7.40
2017-11-09T21:19:54.603Z,7.60
2017-11-09T21:22:22.211Z,7.60
2017-11-09T21:24:49.983Z,7.60
2017-11-09T21:27:17.598Z,7.50
2017-11-09T21:29:45.196Z,7.50
2017-11-09T21:32:12.871Z,7.50
2017-11-09T21:34:41.296Z,7.50
2017-11-09T21:37:08.867Z,7.40
2017-11-09T21:39:36.532Z,7.30
2017-11-09T21:42:04.138Z,7.20
2017-11-09T21:44:32.661Z,7.20
2017-11-09T21:47:00.365Z,7.20
2017-11-09T21:49:27.956Z,7.20
2017-11-09T21:51:55.565Z,7.30
2017-11-09T21:54:23.314Z,7.30
2017-11-09T21:56:50.910Z,7.30
2017-11-09T21:59:18.516Z,7.30
2017-11-09T22:01:46.129Z,7.30
2017-11-09T22:04:13.696Z,7.30
2017-11-09T22:06:42.069Z,7.20
2017-11-09T22:09:09.686Z,7.20
2017-11-09T22:11:37.279Z,7.30
2017-11-09T22:14:04.934Z,7.50
2017-11-09T22:16:32.500Z,7.60
2017-11-09T22:19:00.237Z,7.60
2017-11-09T22:21:27.821Z,7.50
2017-11-09T22:23:55.410Z,7.40
2017-11-09T22:26:23.012Z,7.30
2017-11-09T22:28:50.620Z,7.40
2017-11-09T22:31:19.042Z,7.60
2017-11-09T22:33:46.693Z,7.60
2017-11-09T22:36:14.278Z,7.60
2017-11-09T22:38:41.867Z,7.60
2017-11-09T22:41:10.236Z,7.60
2017-11-09T22:43:37.842Z,7.60
2017-11-09T22:46:05.503Z,7.60
2017-11-09T22:48:33.065Z,7.60
2017-11-09T22:51:00.712Z,7.50
2017-11-09T22:53:28.426Z,7.50
2017-11-09T22:55:56.004Z,7.50
2017-11-09T22:58:24.394Z,7.50
2017-11-09T23:00:52.008Z,7.50
2017-11-09T23:03:19.585Z,7.50
2017-11-09T23:05:47.180Z,7.50
2017-11-09T23:08:14.765Z,7.40
2017-11-09T23:10:42.365Z,7.40
2017-11-09T23:13:09.944Z,7.40
2017-11-09T23:15:38.340Z,7.30
2017-11-09T23:18:05.901Z,7.30
2017-11-09T23:20:33.478Z,7.30
2017-11-09T23:23:01.144Z,7.30
2017-11-09T23:25:28.721Z,7.30
2017-11-09T23:27:56.323Z,7.20
2017-11-09T23:30:24.725Z,7.30
2017-11-09T23:32:52.441Z,7.20
2017-11-09T23:35:20.148Z,7.20
2017-11-09T23:37:47.808Z,7.20
2017-11-09T23:40:15.407Z,7.10
2017-11-09T23:42:42.976Z,7.20
2017-11-09T23:45:10.602Z,7.20
2017-11-09T23:47:38.186Z,7.10
2017-11-09T23:50:05.807Z,7.10
2017-11-09T23:52:33.508Z,7.00
2017-11-09T23:55:01.093Z,7.10
2017-11-09T23:57:29.460Z,7.00
2017-11-09T23:59:57.038Z,7.00
